Time;durP1;ratioP1;P1;durP2;ratioP2;P2;SDS_P1;SDS_P2;PMS_P1;PMS_P2;Temp;Humidity;BMP_temperature;BMP_pressure;BME280_temperature;BME280_humidity;BME280_pressure;Samples;Min_cycle;Max_cycle;Signal;HPM_P1;HPM_P2
2023/11/13 00:02:25;;;;;;;14.33;7.87;;;7.30;88.10;;;;;;5011320;28;20813;-71
2023/11/13 00:04:51;;;;;;;12.77;7.30;;;7.30;88.00;;;;;;5011354;28;21000;-71
2023/11/13 00:07:17;;;;;;;11.13;6.30;;;7.20;88.10;;;;;;5011718;28;20424;-73
2023/11/13 00:09:42;;;;;;;11.37;6.67;;;7.30;88.30;;;;;;5012106;28;20213;-73
2023/11/13 00:12:08;;;;;;;11.07;7.10;;;7.30;88.30;;;;;;4993601;28;20670;-72
2023/11/13 00:14:34;;;;;;;15.13;7.87;;;7.30;88.40;;;;;;5011861;28;20221;-72
2023/11/13 00:17:00;;;;;;;12.17;7.20;;;7.40;88.60;;;;;;5012032;28;20239;-72
2023/11/13 00:19:26;;;;;;;16.47;8.93;;;7.30;88.60;;;;;;5011619;28;20212;-71
2023/11/13 00:21:52;;;;;;;14.07;7.30;;;7.30;88.70;;;;;;5011221;28;20412;-72
2023/11/13 00:24:18;;;;;;;12.57;7.90;;;7.40;89.00;;;;;;5011224;28;20477;-71
2023/11/13 00:26:43;;;;;;;11.43;7.60;;;7.40;89.30;;;;;;5011405;28;20190;-71
2023/11/13 00:29:11;;;;;;;51.47;8.10;;;7.50;89.50;;;;;;5002170;28;20476;-71
2023/11/13 00:31:37;;;;;;;12.67;7.53;;;7.50;89.50;;;;;;4991388;28;20597;-74
2023/11/13 00:34:02;;;;;;;16.43;8.37;;;7.50;89.50;;;;;;5001220;28;20580;-75
2023/11/13 00:36:28;;;;;;;14.20;9.00;;;7.50;89.50;;;;;;5007652;28;20218;-71
2023/11/13 00:38:53;;;;;;;13.00;7.80;;;7.50;89.50;;;;;;4993111;28;20560;-72
2023/11/13 00:41:19;;;;;;;13.27;7.97;;;7.50;89.30;;;;;;4995412;28;20234;-72
2023/11/13 00:43:45;;;;;;;12.90;7.43;;;7.50;89.20;;;;;;4975150;28;20580;-73
2023/11/13 00:46:11;;;;;;;14.93;9.07;;;7.40;89.00;;;;;;4991545;28;20198;-73
2023/11/13 00:48:40;;;;;;;13.97;7.70;;;7.40;89.20;;;;;;4991734;28;20459;-74
2023/11/13 00:51:06;;;;;;;11.77;7.90;;;7.40;89.20;;;;;;4991357;28;20243;-76
2023/11/13 00:53:36;;;;;;;13.87;7.43;;;7.40;89.30;;;;;;4988678;28;20484;-71
2023/11/13 00:56:05;;;;;;;12.70;8.13;;;7.40;89.50;;;;;;5006631;28;20429;-72
2023/11/13 00:58:35;;;;;;;10.97;7.40;;;7.40;89.50;;;;;;4992354;28;20452;-72
2023/11/13 01:01:02;;;;;;;13.57;7.87;;;7.40;89.60;;;;;;4998290;28;20412;-73
2023/11/13 01:03:28;;;;;;;10.03;6.97;;;7.50;89.70;;;;;;5012346;28;20473;-73
2023/11/13 01:05:54;;;;;;;15.60;8.50;;;7.50;89.70;;;;;;5012985;28;20453;-72
2023/11/13 01:08:20;;;;;;;13.67;7.37;;;7.40;89.90;;;;;;5014187;28;20451;-71
2023/11/13 01:10:45;;;;;;;12.43;7.47;;;7.50;89.90;;;;;;5019012;28;20432;-71
2023/11/13 01:13:11;;;;;;;16.60;9.03;;;7.50;89.90;;;;;;5019340;28;20309;-74
2023/11/13 01:15:37;;;;;;;19.57;9.50;;;7.60;90.00;;;;;;5020350;28;20597;-76
2023/11/13 01:18:02;;;;;;;16.77;9.27;;;7.60;89.90;;;;;;5019683;28;20185;-72
2023/11/13 01:20:28;;;;;;;14.57;8.07;;;7.70;90.00;;;;;;5019280;28;20666;-72
2023/11/13 01:22:53;;;;;;;15.80;8.50;;;7.70;90.00;;;;;;5019217;28;20296;-72
2023/11/13 01:25:19;;;;;;;17.10;9.57;;;7.70;90.00;;;;;;5019273;28;20817;-72
2023/11/13 01:27:44;;;;;;;16.87;7.67;;;7.70;90.00;;;;;;5017425;28;20204;-75
2023/11/13 01:30:11;;;;;;;17.70;10.17;;;7.70;90.00;;;;;;5015346;28;20194;-72
2023/11/13 01:32:37;;;;;;;24.50;11.67;;;7.70;90.00;;;;;;5015636;28;20285;-71
2023/11/13 01:35:03;;;;;;;21.30;10.70;;;7.70;90.00;;;;;;5015169;28;20468;-70
2023/11/13 01:37:30;;;;;;;19.90;10.67;;;7.50;90.00;;;;;;5014849;28;20663;-73
2023/11/13 01:39:55;;;;;;;20.30;10.37;;;7.50;90.10;;;;;;4995211;28;20540;-72
2023/11/13 01:42:21;;;;;;;25.07;12.23;;;7.60;90.30;;;;;;4989834;28;20479;-73
2023/11/13 01:44:47;;;;;;;19.20;10.07;;;7.60;90.30;;;;;;5014641;28;20592;-71
2023/11/13 01:47:14;;;;;;;17.17;9.47;;;7.60;90.40;;;;;;5014935;28;20257;-71
2023/11/13 01:49:41;;;;;;;20.43;9.90;;;7.70;90.50;;;;;;5014462;28;20182;-72
2023/11/13 01:52:07;;;;;;;13.27;7.77;;;7.70;90.40;;;;;;5014023;28;20409;-71
2023/11/13 01:54:34;;;;;;;12.20;7.47;;;7.80;90.50;;;;;;5014461;28;20470;-74
2023/11/13 01:57:03;;;;;;;13.70;7.80;;;7.90;90.60;;;;;;5015815;28;20435;-73
2023/11/13 01:59:29;;;;;;;13.97;7.03;;;7.80;90.60;;;;;;5015302;28;20496;-71
2023/11/13 02:01:56;;;;;;;15.07;7.27;;;7.80;90.50;;;;;;5015497;28;20653;-72
2023/11/13 02:04:21;;;;;;;14.90;8.00;;;7.80;90.60;;;;;;5015210;28;20472;-73
2023/11/13 02:06:47;;;;;;;13.53;7.80;;;7.80;90.70;;;;;;5016843;28;20439;-71
2023/11/13 02:09:13;;;;;;;16.40;8.50;;;7.80;90.80;;;;;;5010885;28;20558;-72
2023/11/13 02:11:40;;;;;;;15.40;7.83;;;7.80;90.80;;;;;;4998462;28;20186;-76
2023/11/13 02:14:06;;;;;;;14.17;8.37;;;7.70;90.90;;;;;;5002064;28;20456;-75
2023/11/13 02:16:31;;;;;;;14.07;7.90;;;7.80;91.00;;;;;;5002228;28;20527;-73
2023/11/13 02:18:57;;;;;;;13.37;8.00;;;7.90;91.20;;;;;;5014054;28;20433;-73
2023/11/13 02:21:23;;;;;;;14.53;7.57;;;7.90;91.30;;;;;;5000761;28;20268;-72
2023/11/13 02:23:51;;;;;;;16.60;7.87;;;7.90;91.30;;;;;;4995744;28;20472;-71
2023/11/13 02:26:17;;;;;;;14.80;7.60;;;7.90;91.20;;;;;;4995232;28;20190;-71
2023/11/13 02:28:44;;;;;;;15.63;8.13;;;7.90;91.30;;;;;;4994244;28;20522;-73
2023/11/13 02:31:09;;;;;;;14.87;8.23;;;7.90;91.20;;;;;;4995333;28;20453;-74
2023/11/13 02:33:35;;;;;;;19.10;7.93;;;8.00;91.20;;;;;;4996572;28;20450;-73
2023/11/13 02:36:02;;;;;;;16.67;8.73;;;8.00;91.30;;;;;;4999394;28;20421;-73
2023/11/13 02:38:27;;;;;;;13.27;6.77;;;8.00;91.30;;;;;;4997379;28;20414;-73
2023/11/13 02:40:53;;;;;;;15.93;8.03;;;8.00;91.40;;;;;;4996393;28;20443;-72
2023/11/13 02:43:18;;;;;;;13.00;7.77;;;8.10;91.40;;;;;;4996024;28;20701;-73
2023/11/13 02:45:44;;;;;;;17.13;8.50;;;8.10;91.40;;;;;;4994726;28;20190;-72
2023/11/13 02:48:10;;;;;;;15.67;8.00;;;8.10;91.40;;;;;;4994118;28;20190;-75
2023/11/13 02:50:36;;;;;;;19.07;9.07;;;8.10;91.40;;;;;;4993774;28;20199;-77
2023/11/13 02:53:01;;;;;;;14.07;8.23;;;8.00;91.40;;;;;;5004333;28;20616;-72
2023/11/13 02:55:27;;;;;;;21.63;9.83;;;8.00;91.40;;;;;;5013556;28;20192;-72
2023/11/13 02:57:52;;;;;;;18.30;9.43;;;8.00;91.40;;;;;;4989407;28;20206;-73
2023/11/13 03:00:19;;;;;;;23.37;10.23;;;8.00;91.50;;;;;;4993343;28;20292;-74
2023/11/13 03:02:48;;;;;;;19.90;10.80;;;8.00;91.50;;;;;;4999608;28;20181;-73
2023/11/13 03:05:16;;;;;;;19.30;10.20;;;8.00;91.60;;;;;;5012730;28;20495;-72
2023/11/13 03:07:43;;;;;;;25.43;12.17;;;8.00;91.60;;;;;;5012821;28;21083;-72
2023/11/13 03:10:09;;;;;;;19.73;11.13;;;8.00;91.60;;;;;;5011836;28;20441;-72
2023/11/13 03:12:35;;;;;;;23.07;12.80;;;7.90;91.60;;;;;;4992738;28;20938;-79
2023/11/13 03:15:01;;;;;;;19.47;10.50;;;7.90;91.70;;;;;;4993043;28;20438;-72
2023/11/13 03:17:27;;;;;;;23.53;13.03;;;7.90;91.70;;;;;;4993555;28;20495;-72
2023/11/13 03:19:53;;;;;;;15.77;9.87;;;8.00;91.70;;;;;;4992848;28;20274;-71
2023/11/13 03:22:18;;;;;;;17.30;9.83;;;8.00;91.70;;;;;;4992940;28;20512;-71
2023/11/13 03:24:46;;;;;;;13.53;7.13;;;8.10;91.90;;;;;;4992347;28;20210;-76
2023/11/13 03:27:12;;;;;;;20.80;8.13;;;8.20;91.90;;;;;;4992912;28;20197;-71
2023/11/13 03:29:38;;;;;;;10.73;6.10;;;8.40;92.00;;;;;;4992350;28;20414;-71
2023/11/13 03:32:04;;;;;;;13.40;6.50;;;8.50;92.10;;;;;;4991734;28;20183;-72
2023/11/13 03:34:30;;;;;;;13.60;7.07;;;8.60;92.10;;;;;;4974559;28;20965;-71
2023/11/13 03:36:56;;;;;;;9.00;4.93;;;8.70;92.00;;;;;;4993861;28;20440;-72
2023/11/13 03:39:21;;;;;;;10.57;5.70;;;8.80;92.00;;;;;;4992539;28;20201;-71
2023/11/13 03:41:47;;;;;;;14.83;6.60;;;8.80;92.00;;;;;;4992270;28;20202;-71
2023/11/13 03:44:12;;;;;;;11.23;6.27;;;8.90;91.90;;;;;;4993300;28;20226;-71
2023/11/13 03:46:38;;;;;;;11.60;6.70;;;8.90;91.90;;;;;;4993434;28;20218;-70
2023/11/13 03:49:04;;;;;;;14.20;7.03;;;8.90;91.90;;;;;;4993819;28;20253;-71
2023/11/13 03:51:30;;;;;;;12.47;5.30;;;8.90;91.90;;;;;;4994180;28;20183;-70
2023/11/13 03:53:56;;;;;;;9.40;5.70;;;8.90;91.90;;;;;;5011827;28;20520;-72
2023/11/13 03:56:24;;;;;;;9.80;5.57;;;9.00;92.10;;;;;;5013091;28;20425;-70
2023/11/13 03:58:50;;;;;;;6.63;4.70;;;9.10;92.20;;;;;;5012619;28;20448;-71
2023/11/13 04:01:17;;;;;;;10.33;4.47;;;9.10;92.30;;;;;;5012411;28;20467;-70
2023/11/13 04:03:43;;;;;;;8.00;4.17;;;9.20;92.50;;;;;;5011987;28;20480;-69
2023/11/13 04:06:08;;;;;;;7.77;3.40;;;9.30;92.50;;;;;;5011982;28;20432;-70
2023/11/13 04:08:34;;;;;;;6.40;3.07;;;9.50;92.70;;;;;;5012553;28;20190;-71
2023/11/13 04:11:03;;;;;;;4.40;2.30;;;9.70;92.80;;;;;;5012079;28;20444;-70
2023/11/13 04:13:29;;;;;;;6.67;2.57;;;9.90;93.10;;;;;;5012284;28;20221;-71
2023/11/13 04:15:57;;;;;;;4.00;2.10;;;10.00;93.00;;;;;;5013382;28;20753;-72
2023/11/13 04:18:23;;;;;;;2.73;1.80;;;10.10;92.90;;;;;;5012197;28;20189;-72
2023/11/13 04:20:49;;;;;;;3.00;1.60;;;10.20;92.90;;;;;;5011797;28;20451;-70
2023/11/13 04:23:14;;;;;;;2.10;1.53;;;10.30;92.80;;;;;;5011760;28;21172;-70
2023/11/13 04:25:45;;;;;;;2.33;1.40;;;10.40;92.70;;;;;;4996169;28;20186;-72
2023/11/13 04:28:13;;;;;;;3.67;1.37;;;10.40;92.40;;;;;;5013925;28;20208;-70
2023/11/13 04:30:39;;;;;;;5.37;1.90;;;10.40;92.20;;;;;;5013054;28;20456;-69
2023/11/13 04:33:04;;;;;;;2.93;1.67;;;10.50;92.00;;;;;;5014230;28;20437;-70
2023/11/13 04:35:30;;;;;;;2.00;1.47;;;10.50;91.70;;;;;;5016617;28;20189;-70
2023/11/13 04:37:56;;;;;;;7.13;2.00;;;10.50;91.40;;;;;;4994693;28;20189;-70
2023/11/13 04:40:21;;;;;;;4.83;1.80;;;10.60;91.20;;;;;;5012267;28;20271;-71
2023/11/13 04:42:47;;;;;;;2.23;1.30;;;10.60;91.00;;;;;;5012230;28;20217;-70
2023/11/13 04:45:12;;;;;;;3.47;1.90;;;10.60;90.60;;;;;;5016546;28;20286;-72
2023/11/13 04:47:38;;;;;;;6.70;1.70;;;10.70;90.40;;;;;;4983598;28;20558;-72
2023/11/13 04:50:05;;;;;;;5.40;1.57;;;10.70;90.10;;;;;;4995909;28;20202;-70
2023/11/13 04:52:32;;;;;;;3.50;1.60;;;10.60;90.00;;;;;;5002344;28;20182;-71
2023/11/13 04:54:58;;;;;;;4.43;1.40;;;10.60;89.90;;;;;;5006602;28;20448;-71
2023/11/13 04:57:23;;;;;;;3.93;1.23;;;10.70;89.60;;;;;;4996854;28;20413;-70
2023/11/13 04:59:50;;;;;;;5.90;1.90;;;10.70;88.70;;;;;;4996311;28;20182;-69
2023/11/13 05:02:15;;;;;;;5.17;2.10;;;10.70;88.60;;;;;;4996459;28;20193;-69
2023/11/13 05:04:45;;;;;;;4.03;1.90;;;10.70;88.70;;;;;;4995172;28;20461;-69
2023/11/13 05:07:11;;;;;;;8.57;1.87;;;10.80;88.70;;;;;;4996105;28;20198;-70
2023/11/13 05:09:36;;;;;;;4.17;1.90;;;10.80;88.60;;;;;;5005219;28;20427;-72
2023/11/13 05:12:02;;;;;;;4.43;1.53;;;10.80;88.00;;;;;;5013629;28;20187;-71
2023/11/13 05:14:27;;;;;;;3.13;1.80;;;10.80;88.00;;;;;;4996297;28;20293;-71
2023/11/13 05:16:58;;;;;;;3.00;1.73;;;10.80;88.00;;;;;;4996016;28;20248;-71
2023/11/13 05:19:24;;;;;;;15.10;2.60;;;10.80;88.10;;;;;;4996336;28;20712;-71
2023/11/13 05:21:50;;;;;;;3.77;2.00;;;10.90;88.40;;;;;;4995840;28;20429;-70
2023/11/13 05:24:15;;;;;;;4.40;2.30;;;10.90;88.10;;;;;;4995235;28;20560;-70
2023/11/13 05:26:41;;;;;;;4.93;2.00;;;10.90;88.40;;;;;;4995765;28;20425;-72
2023/11/13 05:29:07;;;;;;;7.00;2.07;;;10.90;88.10;;;;;;5004950;28;20185;-72
2023/11/13 05:31:33;;;;;;;4.13;1.93;;;11.00;88.10;;;;;;5011288;28;20218;-71
2023/11/13 05:33:59;;;;;;;6.07;2.40;;;11.00;88.00;;;;;;4994314;28;20535;-73
2023/11/13 05:36:24;;;;;;;5.20;2.03;;;11.10;87.70;;;;;;4994996;28;20191;-71
2023/11/13 05:38:50;;;;;;;7.33;2.40;;;11.10;87.30;;;;;;4995091;28;20245;-72
2023/11/13 05:41:16;;;;;;;10.57;2.50;;;11.00;87.40;;;;;;4994359;28;20221;-71
2023/11/13 05:43:41;;;;;;;12.53;2.57;;;11.10;87.10;;;;;;4995290;28;20647;-73
2023/11/13 05:46:07;;;;;;;8.47;2.93;;;11.10;86.90;;;;;;4994681;28;20186;-71
2023/11/13 05:48:33;;;;;;;11.07;2.83;;;11.20;86.30;;;;;;4994660;28;20529;-71
2023/11/13 05:51:00;;;;;;;9.53;3.07;;;11.10;86.30;;;;;;4994066;28;20996;-72
2023/11/13 05:53:26;;;;;;;11.23;3.27;;;11.10;86.00;;;;;;5007895;28;20467;-72
2023/11/13 05:55:51;;;;;;;17.47;4.20;;;11.20;86.00;;;;;;4996786;28;20469;-72
2023/11/13 05:58:17;;;;;;;7.00;3.50;;;11.20;85.90;;;;;;4994550;28;20430;-71
2023/11/13 06:00:44;;;;;;;8.23;3.03;;;11.20;85.70;;;;;;4993985;28;20194;-71
2023/11/13 06:03:10;;;;;;;8.47;3.00;;;11.20;86.00;;;;;;4993732;28;20195;-70
2023/11/13 06:05:36;;;;;;;14.70;3.53;;;11.20;86.30;;;;;;4994241;28;20528;-70
2023/11/13 06:08:01;;;;;;;10.47;3.07;;;11.10;86.30;;;;;;4994846;28;21089;-70
2023/11/13 06:10:27;;;;;;;11.00;3.27;;;11.10;86.30;;;;;;4994280;28;20190;-71
2023/11/13 06:12:52;;;;;;;7.80;3.17;;;11.10;86.50;;;;;;4995020;28;20190;-73
2023/11/13 06:15:20;;;;;;;9.00;4.00;;;11.20;86.00;;;;;;4996464;28;20230;-68
2023/11/13 06:17:45;;;;;;;7.70;3.30;;;11.10;85.90;;;;;;4979916;28;20201;-70
2023/11/13 06:20:15;;;;;;;17.13;4.00;;;11.20;85.90;;;;;;4996404;28;20509;-70
2023/11/13 06:22:41;;;;;;;11.13;3.73;;;11.20;85.60;;;;;;4999178;28;20500;-73
2023/11/13 06:25:09;;;;;;;11.00;3.13;;;11.30;85.60;;;;;;5014179;28;20568;-72
2023/11/13 06:27:35;;;;;;;12.37;3.30;;;11.30;85.50;;;;;;5001497;28;20429;-70
2023/11/13 06:30:01;;;;;;;20.63;5.03;;;11.30;85.20;;;;;;4999814;28;20437;-72
2023/11/13 06:32:28;;;;;;;11.33;3.50;;;11.40;85.00;;;;;;4982269;28;20442;-70
2023/11/13 06:34:54;;;;;;;11.33;3.10;;;11.40;85.00;;;;;;4993847;28;20235;-70
2023/11/13 06:37:19;;;;;;;10.73;3.50;;;11.40;85.20;;;;;;4995037;28;20506;-72
2023/11/13 06:39:45;;;;;;;13.97;3.10;;;11.40;85.00;;;;;;4993657;28;20574;-72
2023/11/13 06:42:11;;;;;;;13.83;3.57;;;11.40;85.20;;;;;;4994354;28;20555;-70
2023/11/13 06:44:38;;;;;;;12.30;4.27;;;11.50;85.30;;;;;;4992706;28;20210;-69
2023/11/13 06:47:04;;;;;;;9.60;3.73;;;11.50;85.20;;;;;;5006251;28;20670;-71
2023/11/13 06:49:30;;;;;;;12.27;3.90;;;11.50;85.00;;;;;;5010000;28;20428;-70
2023/11/13 06:51:56;;;;;;;16.60;3.73;;;11.50;85.00;;;;;;4996312;28;20521;-72
2023/11/13 06:54:21;;;;;;;17.00;5.07;;;11.50;84.90;;;;;;5008937;28;20217;-71
2023/11/13 06:56:47;;;;;;;18.33;4.30;;;11.50;84.90;;;;;;4993738;28;20191;-71
2023/11/13 06:59:12;;;;;;;11.77;3.90;;;11.50;85.00;;;;;;4993043;28;20194;-70
2023/11/13 07:01:41;;;;;;;12.67;3.90;;;11.50;85.00;;;;;;4992804;28;20183;-72
2023/11/13 07:04:10;;;;;;;10.23;3.43;;;11.50;85.00;;;;;;4992873;28;20234;-71
2023/11/13 07:06:37;;;;;;;10.30;3.93;;;11.60;85.20;;;;;;4992070;28;21253;-70
2023/11/13 07:09:10;;;;;;;16.97;5.00;;;11.60;85.20;;;;;;4993231;28;20425;-71
2023/11/13 07:11:35;;;;;;;16.80;3.73;;;11.50;85.20;;;;;;4992387;28;20425;-71
2023/11/13 07:14:01;;;;;;;14.10;4.20;;;11.50;85.50;;;;;;4992030;28;20877;-71
2023/11/13 07:16:27;;;;;;;16.73;4.90;;;11.50;85.70;;;;;;4992461;28;20929;-71
2023/11/13 07:18:53;;;;;;;11.70;4.77;;;11.50;86.00;;;;;;4992510;28;20186;-71
2023/11/13 07:21:19;;;;;;;12.10;3.83;;;11.50;86.20;;;;;;4992326;28;20570;-71
2023/11/13 07:23:45;;;;;;;10.70;4.10;;;11.50;86.20;;;;;;4992811;28;20576;-71
2023/11/13 07:26:10;;;;;;;11.03;4.37;;;11.50;86.20;;;;;;4992877;28;20191;-72
2023/11/13 07:28:36;;;;;;;18.60;5.27;;;11.50;86.30;;;;;;4992355;28;20194;-72
2023/11/13 07:31:02;;;;;;;13.23;4.37;;;11.50;86.50;;;;;;4992447;28;20484;-71
2023/11/13 07:33:28;;;;;;;12.30;4.20;;;11.50;86.60;;;;;;4992059;28;20236;-72
2023/11/13 07:35:54;;;;;;;15.67;5.00;;;11.50;86.50;;;;;;4992338;28;20507;-71
2023/11/13 07:38:20;;;;;;;10.50;4.10;;;11.40;86.60;;;;;;4992240;28;20186;-71
2023/11/13 07:40:46;;;;;;;12.33;5.50;;;11.40;86.80;;;;;;4992180;28;20210;-71
2023/11/13 07:43:12;;;;;;;15.40;5.83;;;11.40;87.10;;;;;;4973970;28;20499;-71
2023/11/13 07:45:38;;;;;;;20.33;6.40;;;11.40;87.30;;;;;;4992182;28;20465;-71
2023/11/13 07:48:04;;;;;;;12.57;4.90;;;11.30;87.40;;;;;;4992538;28;20677;-71
2023/11/13 07:50:29;;;;;;;13.77;4.97;;;11.40;87.60;;;;;;4991551;28;20530;-71
2023/11/13 07:52:55;;;;;;;16.00;6.57;;;11.40;87.70;;;;;;5001479;28;20471;-70
2023/11/13 07:55:22;;;;;;;11.60;4.50;;;11.30;87.70;;;;;;4999616;28;20189;-69
2023/11/13 07:57:48;;;;;;;13.53;4.63;;;11.30;87.80;;;;;;4992041;28;20481;-70
2023/11/13 08:00:15;;;;;;;14.57;4.50;;;11.30;87.80;;;;;;4992141;28;20429;-71
2023/11/13 08:02:42;;;;;;;15.80;4.03;;;11.30;88.00;;;;;;4992389;28;20205;-73
2023/11/13 08:05:12;;;;;;;10.33;3.90;;;11.30;88.00;;;;;;4993056;28;21009;-70
2023/11/13 08:07:43;;;;;;;9.30;4.50;;;11.20;87.80;;;;;;4993023;28;20432;-71
2023/11/13 08:10:13;;;;;;;11.80;4.70;;;11.20;87.70;;;;;;4992921;28;20448;-71
2023/11/13 08:12:49;;;;;;;11.50;3.40;;;11.00;87.60;;;;;;4992523;28;20970;-72
2023/11/13 08:15:15;;;;;;;14.07;4.17;;;11.00;87.60;;;;;;4994600;28;20438;-73
2023/11/13 08:17:42;;;;;;;14.93;4.40;;;11.00;87.40;;;;;;4994031;28;20426;-72
2023/11/13 08:20:09;;;;;;;8.97;2.70;;;11.00;87.30;;;;;;4992029;28;20426;-71
2023/11/13 08:22:35;;;;;;;8.00;3.00;;;10.90;87.30;;;;;;4992324;28;20993;-73
2023/11/13 08:25:04;;;;;;;8.47;3.27;;;10.90;87.00;;;;;;4993175;28;20473;-72
2023/11/13 08:27:30;;;;;;;9.00;3.50;;;10.80;87.00;;;;;;4993842;28;20916;-71
2023/11/13 08:29:56;;;;;;;6.70;2.47;;;10.80;87.10;;;;;;4975061;28;20442;-70
2023/11/13 08:32:22;;;;;;;12.10;3.17;;;10.90;87.10;;;;;;4975078;28;20433;-71
2023/11/13 08:34:48;;;;;;;11.70;3.20;;;10.80;87.10;;;;;;5008445;28;20456;-71
2023/11/13 08:37:14;;;;;;;9.20;3.00;;;10.70;87.10;;;;;;5002125;28;20191;-70
2023/11/13 08:39:40;;;;;;;8.93;2.90;;;10.70;87.30;;;;;;4991679;28;20815;-72
2023/11/13 08:42:07;;;;;;;12.03;2.70;;;10.70;87.40;;;;;;4993556;28;20201;-69
2023/11/13 08:44:33;;;;;;;9.20;2.57;;;10.70;87.40;;;;;;4992486;28;20253;-69
2023/11/13 08:46:58;;;;;;;13.67;2.53;;;10.60;87.30;;;;;;4997413;28;20430;-71
2023/11/13 08:49:24;;;;;;;6.40;2.07;;;10.60;87.40;;;;;;4993483;28;20191;-71
2023/11/13 08:51:49;;;;;;;6.07;2.83;;;10.60;87.40;;;;;;4992960;28;20187;-72
2023/11/13 08:54:16;;;;;;;9.00;2.57;;;10.70;87.10;;;;;;4993515;28;20356;-70
2023/11/13 08:56:48;;;;;;;9.83;2.73;;;10.70;86.90;;;;;;5012569;28;20200;-71
2023/11/13 08:59:14;;;;;;;13.90;3.07;;;10.60;86.90;;;;;;5011685;28;20416;-71
2023/11/13 09:01:40;;;;;;;5.57;2.73;;;10.60;87.00;;;;;;5013431;28;20964;-73
2023/11/13 09:04:06;;;;;;;9.03;2.63;;;10.60;87.30;;;;;;5013241;28;20225;-67
2023/11/13 09:06:35;;;;;;;7.03;2.97;;;10.70;87.40;;;;;;5017231;28;20519;-72
2023/11/13 09:09:01;;;;;;;11.50;1.90;;;10.70;87.30;;;;;;5019460;28;20421;-70
2023/11/13 09:11:28;;;;;;;21.43;3.17;;;10.70;87.40;;;;;;5014514;28;20466;-71
2023/11/13 09:13:55;;;;;;;5.40;2.43;;;10.70;87.60;;;;;;5011074;28;20502;-70
2023/11/13 09:16:21;;;;;;;4.40;2.10;;;10.80;87.70;;;;;;5012384;28;20419;-69
2023/11/13 09:18:48;;;;;;;6.53;2.67;;;10.80;87.70;;;;;;5011715;28;20488;-70
2023/11/13 09:21:17;;;;;;;6.23;2.87;;;10.80;87.60;;;;;;5011352;28;20198;-69
2023/11/13 09:23:44;;;;;;;10.00;3.60;;;10.80;87.80;;;;;;5011106;28;20819;-73
2023/11/13 09:26:11;;;;;;;6.23;2.80;;;10.80;88.10;;;;;;5011546;28;20433;-70
2023/11/13 09:28:37;;;;;;;7.67;2.47;;;10.80;88.10;;;;;;5011585;28;20520;-72
2023/11/13 09:31:03;;;;;;;6.63;2.73;;;10.80;88.30;;;;;;5013719;28;20518;-72
2023/11/13 09:33:30;;;;;;;3.57;2.00;;;10.90;88.40;;;;;;5014946;28;20441;-70
2023/11/13 09:35:55;;;;;;;12.20;3.17;;;11.00;87.80;;;;;;5014582;28;20499;-72
2023/11/13 09:38:21;;;;;;;8.03;2.70;;;11.00;87.70;;;;;;5014592;28;20456;-71
2023/11/13 09:40:47;;;;;;;7.63;2.60;;;11.00;87.80;;;;;;5013958;28;20462;-71
2023/11/13 09:43:18;;;;;;;5.23;2.40;;;11.00;88.00;;;;;;5014645;28;20190;-72
2023/11/13 09:45:45;;;;;;;5.07;2.70;;;11.00;88.10;;;;;;5014893;28;20495;-71
2023/11/13 09:48:36;;;;;;;9.27;2.60;;;11.00;88.40;;;;;;5014419;28;20432;-70
2023/11/13 09:51:02;;;;;;;8.57;3.23;;;11.10;88.60;;;;;;5013206;28;20441;-70
2023/11/13 09:53:28;;;;;;;11.23;4.03;;;11.20;88.60;;;;;;5013621;28;20449;-71
2023/11/13 09:55:55;;;;;;;5.37;2.97;;;11.20;88.40;;;;;;4997605;28;20434;-73
2023/11/13 09:58:21;;;;;;;10.03;3.00;;;11.20;88.60;;;;;;4994957;28;20442;-71
2023/11/13 10:00:47;;;;;;;4.40;2.40;;;11.40;88.70;;;;;;4994767;28;20434;-70
2023/11/13 10:03:14;;;;;;;8.53;2.87;;;11.40;88.40;;;;;;4994870;28;20490;-70
2023/11/13 10:05:44;;;;;;;6.50;2.10;;;11.50;88.40;;;;;;4995814;28;20468;-71
2023/11/13 10:08:09;;;;;;;5.90;2.20;;;11.60;88.60;;;;;;4997354;28;20422;-71
2023/11/13 10:10:39;;;;;;;3.67;2.30;;;11.80;88.70;;;;;;5001309;28;20449;-71
2023/11/13 10:13:09;;;;;;;6.10;2.40;;;12.00;88.40;;;;;;4998404;28;20191;-70
2023/11/13 10:15:42;;;;;;;7.60;2.30;;;12.00;88.60;;;;;;4995753;28;20426;-70
2023/11/13 10:18:08;;;;;;;7.80;2.40;;;12.20;88.30;;;;;;4994584;28;20452;-71
2023/11/13 10:20:45;;;;;;;9.33;2.30;;;12.30;88.10;;;;;;4994307;28;20417;-70
2023/11/13 10:23:13;;;;;;;11.53;2.40;;;12.40;88.00;;;;;;4976394;28;20530;-70
2023/11/13 10:25:41;;;;;;;6.30;1.83;;;12.50;88.10;;;;;;4994304;28;20473;-70
2023/11/13 10:28:10;;;;;;;8.17;2.13;;;12.50;88.10;;;;;;4994327;28;20997;-72
2023/11/13 10:30:59;;;;;;;7.10;3.03;;;12.50;88.60;;;;;;4993990;28;20430;-69
2023/11/13 10:33:28;;;;;;;6.67;3.10;;;12.50;88.90;;;;;;4993823;28;20481;-71
2023/11/13 10:35:57;;;;;;;8.97;1.93;;;12.60;88.90;;;;;;4994169;28;20529;-71
2023/11/13 10:38:24;;;;;;;9.20;2.60;;;12.60;88.70;;;;;;4992864;28;20492;-71
2023/11/13 10:40:58;;;;;;;6.43;2.17;;;12.60;88.60;;;;;;4993381;28;20453;-70
2023/11/13 10:43:44;;;;;;;5.37;3.13;;;12.60;88.70;;;;;;4993232;28;20451;-71
2023/11/13 10:46:12;;;;;;;7.10;2.60;;;12.70;88.30;;;;;;4993973;28;20425;-70
2023/11/13 10:48:42;;;;;;;14.40;3.20;;;12.80;88.10;;;;;;4976418;28;20477;-72
2023/11/13 10:51:09;;;;;;;9.63;2.70;;;12.90;87.80;;;;;;4993605;28;20512;-71
2023/11/13 10:53:39;;;;;;;8.23;2.73;;;12.90;87.60;;;;;;5008824;28;20466;-71
2023/11/13 10:56:05;;;;;;;6.37;2.40;;;13.00;87.60;;;;;;4995334;28;20410;-72
2023/11/13 10:58:32;;;;;;;4.10;2.10;;;13.10;87.60;;;;;;4993899;28;20425;-71
2023/11/13 11:01:00;;;;;;;6.60;2.70;;;13.10;87.30;;;;;;4994417;28;20496;-71
2023/11/13 11:03:33;;;;;;;5.67;2.70;;;13.20;87.30;;;;;;4994522;28;20434;-71
2023/11/13 11:06:11;;;;;;;7.00;2.33;;;13.20;87.30;;;;;;4995337;28;20430;-72
2023/11/13 11:08:38;;;;;;;5.33;2.10;;;13.30;86.90;;;;;;4977759;28;20484;-71
2023/11/13 11:11:05;;;;;;;5.60;2.10;;;13.40;86.90;;;;;;4994443;28;20426;-73
2023/11/13 11:13:34;;;;;;;9.60;2.57;;;13.40;86.90;;;;;;4995780;28;20446;-72
2023/11/13 11:16:05;;;;;;;4.30;2.10;;;13.50;86.60;;;;;;5003087;28;20420;-71
2023/11/13 11:18:59;;;;;;;8.27;2.87;;;13.50;87.00;;;;;;4999920;28;20418;-71
2023/11/13 11:21:45;;;;;;;4.23;2.27;;;13.40;87.40;;;;;;5009923;28;20429;-72
2023/11/13 11:24:20;;;;;;;8.57;3.50;;;13.30;88.10;;;;;;5004463;28;20505;-71
2023/11/13 11:26:52;;;;;;;4.13;1.80;;;13.20;88.90;;;;;;4993224;28;20502;-70
2023/11/13 11:29:33;;;;;;;3.37;1.90;;;13.20;89.20;;;;;;4993663;28;20424;-71
2023/11/13 11:32:00;;;;;;;5.60;2.30;;;13.20;89.30;;;;;;4994318;28;20448;-71
2023/11/13 11:34:29;;;;;;;5.57;2.53;;;13.30;89.50;;;;;;4976275;28;20515;-72
2023/11/13 11:36:59;;;;;;;7.27;2.00;;;13.30;89.50;;;;;;4994003;28;20529;-72
2023/11/13 11:39:27;;;;;;;7.93;2.93;;;13.40;88.90;;;;;;4993690;28;20449;-73
2023/11/13 11:41:54;;;;;;;4.87;2.20;;;13.40;88.70;;;;;;4994521;28;20456;-71
2023/11/13 11:44:28;;;;;;;6.63;2.57;;;13.50;88.60;;;;;;4997828;28;20473;-73
2023/11/13 11:46:55;;;;;;;4.20;2.00;;;13.50;88.40;;;;;;4996705;28;20425;-72
2023/11/13 11:49:28;;;;;;;5.20;2.53;;;13.60;88.40;;;;;;4992231;28;20425;-70
2023/11/13 11:52:05;;;;;;;6.67;2.40;;;13.60;88.30;;;;;;4994353;28;20421;-71
2023/11/13 11:54:33;;;;;;;7.97;3.10;;;13.60;88.70;;;;;;5006349;28;20884;-72
2023/11/13 11:57:10;;;;;;;5.70;2.37;;;13.60;88.60;;;;;;4992775;28;20434;-71
2023/11/13 11:59:36;;;;;;;7.13;2.77;;;13.60;88.60;;;;;;4992887;28;20446;-70
2023/11/13 12:02:03;;;;;;;7.00;2.30;;;13.60;88.60;;;;;;4992986;28;20454;-72
2023/11/13 12:04:33;;;;;;;13.03;3.07;;;13.70;88.40;;;;;;4998182;28;20469;-71
2023/11/13 12:07:08;;;;;;;9.13;3.17;;;13.60;88.60;;;;;;4995245;28;20421;-71
2023/11/13 12:09:44;;;;;;;8.20;2.20;;;13.70;88.60;;;;;;4992497;28;20509;-72
2023/11/13 12:12:11;;;;;;;7.10;2.93;;;13.70;88.70;;;;;;4992423;28;20425;-71
2023/11/13 12:14:37;;;;;;;6.47;3.40;;;13.70;88.60;;;;;;4974737;28;20470;-73
2023/11/13 12:17:04;;;;;;;14.07;4.20;;;13.70;88.70;;;;;;4992744;28;20789;-73
2023/11/13 12:19:30;;;;;;;5.47;2.77;;;13.70;88.70;;;;;;4992372;28;20496;-71
2023/11/13 12:21:57;;;;;;;4.10;2.77;;;13.80;88.10;;;;;;4992127;28;20445;-72
2023/11/13 12:24:22;;;;;;;8.53;2.90;;;13.80;88.00;;;;;;4992297;28;20581;-73
2023/11/13 12:26:49;;;;;;;13.50;3.20;;;13.90;87.70;;;;;;4992714;28;20442;-72
2023/11/13 12:29:19;;;;;;;8.30;3.93;;;13.90;87.70;;;;;;4992275;28;20182;-71
2023/11/13 12:31:47;;;;;;;6.80;3.07;;;13.90;87.80;;;;;;4992313;28;20452;-70
2023/11/13 12:34:16;;;;;;;7.90;2.93;;;14.00;87.70;;;;;;4991884;28;20545;-71
2023/11/13 12:36:47;;;;;;;9.73;3.00;;;14.00;87.70;;;;;;4974604;28;20422;-71
2023/11/13 12:39:19;;;;;;;8.13;2.43;;;14.10;87.60;;;;;;4991588;28;20418;-69
2023/11/13 12:41:46;;;;;;;9.83;2.60;;;14.10;87.30;;;;;;4991961;28;20552;-71
2023/11/13 12:44:13;;;;;;;7.23;2.73;;;14.10;87.30;;;;;;4991724;28;20526;-72
2023/11/13 12:46:49;;;;;;;4.90;2.30;;;14.20;87.10;;;;;;4974643;28;20529;-70